sensor_id;sensor_type;location;lat;lon;timestamp;P1;durP1;ratioP1;P2;durP2;ratioP2
19587;SDS011;9940;47.252;8.696;2023-02-21T00:00:28;4.40;;;2.05;;
19587;SDS011;9940;47.252;8.696;2023-02-21T00:03:12;3.42;;;2.40;;
19587;SDS011;9940;47.252;8.696;2023-02-21T00:05:57;4.03;;;2.10;;
19587;SDS011;9940;47.252;8.696;2023-02-21T00:08:41;3.42;;;2.15;;
19587;SDS011;9940;47.252;8.696;2023-02-21T00:11:26;6.15;;;2.47;;
19587;SDS011;9940;47.252;8.696;2023-02-21T00:14:11;7.90;;;3.08;;
19587;SDS011;9940;47.252;8.696;2023-02-21T00:16:55;5.20;;;2.67;;
19587;SDS011;9940;47.252;8.696;2023-02-21T00:19:40;5.90;;;3.00;;
19587;SDS011;9940;47.252;8.696;2023-02-21T00:22:24;4.93;;;2.83;;
19587;SDS011;9940;47.252;8.696;2023-02-21T00:25:09;5.60;;;2.75;;
19587;SDS011;9940;47.252;8.696;2023-02-21T00:27:54;8.82;;;3.53;;
19587;SDS011;9940;47.252;8.696;2023-02-21T00:30:38;5.68;;;3.20;;
19587;SDS011;9940;47.252;8.696;2023-02-21T00:33:23;6.75;;;2.90;;
19587;SDS011;9940;47.252;8.696;2023-02-21T00:36:07;5.57;;;3.20;;
19587;SDS011;9940;47.252;8.696;2023-02-21T00:38:52;5.47;;;2.85;;
19587;SDS011;9940;47.252;8.696;2023-02-21T00:41:37;8.63;;;3.67;;
19587;SDS011;9940;47.252;8.696;2023-02-21T00:44:21;3.75;;;2.65;;
19587;SDS011;9940;47.252;8.696;2023-02-21T00:47:06;3.72;;;2.38;;
19587;SDS011;9940;47.252;8.696;2023-02-21T00:49:51;5.35;;;2.47;;
19587;SDS011;9940;47.252;8.696;2023-02-21T00:52:35;5.22;;;2.53;;
19587;SDS011;9940;47.252;8.696;2023-02-21T00:55:20;5.93;;;2.40;;
19587;SDS011;9940;47.252;8.696;2023-02-21T00:58:04;3.83;;;2.42;;
19587;SDS011;9940;47.252;8.696;2023-02-21T01:00:49;5.13;;;2.38;;
19587;SDS011;9940;47.252;8.696;2023-02-21T01:03:33;7.10;;;3.85;;
19587;SDS011;9940;47.252;8.696;2023-02-21T01:06:20;5.82;;;3.25;;
19587;SDS011;9940;47.252;8.696;2023-02-21T01:09:05;6.40;;;3.45;;
19587;SDS011;9940;47.252;8.696;2023-02-21T01:11:49;7.18;;;3.75;;
19587;SDS011;9940;47.252;8.696;2023-02-21T01:14:34;6.10;;;2.42;;
19587;SDS011;9940;47.252;8.696;2023-02-21T01:17:19;4.47;;;2.22;;
19587;SDS011;9940;47.252;8.696;2023-02-21T01:20:03;4.53;;;2.35;;
19587;SDS011;9940;47.252;8.696;2023-02-21T01:22:51;3.38;;;1.88;;
19587;SDS011;9940;47.252;8.696;2023-02-21T01:25:35;3.78;;;2.13;;
19587;SDS011;9940;47.252;8.696;2023-02-21T01:28:20;3.55;;;2.10;;
19587;SDS011;9940;47.252;8.696;2023-02-21T01:31:05;3.80;;;2.25;;
19587;SDS011;9940;47.252;8.696;2023-02-21T01:33:49;5.00;;;2.20;;
19587;SDS011;9940;47.252;8.696;2023-02-21T01:36:34;8.15;;;2.28;;
19587;SDS011;9940;47.252;8.696;2023-02-21T01:39:18;6.05;;;2.58;;
19587;SDS011;9940;47.252;8.696;2023-02-21T01:42:07;7.05;;;2.72;;
19587;SDS011;9940;47.252;8.696;2023-02-21T01:47:55;7.07;;;3.05;;
19587;SDS011;9940;47.252;8.696;2023-02-21T01:50:40;6.10;;;2.63;;
19587;SDS011;9940;47.252;8.696;2023-02-21T01:53:25;6.93;;;2.72;;
19587;SDS011;9940;47.252;8.696;2023-02-21T01:56:10;5.85;;;2.70;;
19587;SDS011;9940;47.252;8.696;2023-02-21T01:58:56;3.30;;;2.08;;
19587;SDS011;9940;47.252;8.696;2023-02-21T02:01:57;4.18;;;2.03;;
19587;SDS011;9940;47.252;8.696;2023-02-21T02:04:42;4.18;;;1.90;;
19587;SDS011;9940;47.252;8.696;2023-02-21T02:07:28;3.42;;;1.88;;
19587;SDS011;9940;47.252;8.696;2023-02-21T02:10:13;2.20;;;1.33;;
19587;SDS011;9940;47.252;8.696;2023-02-21T02:15:32;2.13;;;1.40;;
19587;SDS011;9940;47.252;8.696;2023-02-21T02:28:46;2.25;;;1.30;;
19587;SDS011;9940;47.252;8.696;2023-02-21T02:36:20;3.20;;;1.60;;
19587;SDS011;9940;47.252;8.696;2023-02-21T02:44:28;3.58;;;1.70;;
19587;SDS011;9940;47.252;8.696;2023-02-21T02:46:56;3.13;;;1.95;;
19587;SDS011;9940;47.252;8.696;2023-02-21T02:49:25;5.78;;;2.75;;
19587;SDS011;9940;47.252;8.696;2023-02-21T02:51:54;7.47;;;2.35;;
19587;SDS011;9940;47.252;8.696;2023-02-21T02:54:27;4.15;;;2.22;;
19587;SDS011;9940;47.252;8.696;2023-02-21T02:57:00;2.97;;;1.85;;
19587;SDS011;9940;47.252;8.696;2023-02-21T02:59:27;3.05;;;1.83;;
19587;SDS011;9940;47.252;8.696;2023-02-21T03:12:48;5.88;;;2.22;;
19587;SDS011;9940;47.252;8.696;2023-02-21T03:15:18;2.60;;;1.67;;
19587;SDS011;9940;47.252;8.696;2023-02-21T03:17:48;3.70;;;2.10;;
19587;SDS011;9940;47.252;8.696;2023-02-21T03:20:18;4.47;;;2.33;;
19587;SDS011;9940;47.252;8.696;2023-02-21T03:22:45;2.85;;;1.58;;
19587;SDS011;9940;47.252;8.696;2023-02-21T03:25:12;3.83;;;2.20;;
19587;SDS011;9940;47.252;8.696;2023-02-21T03:27:39;4.05;;;1.88;;
19587;SDS011;9940;47.252;8.696;2023-02-21T03:30:06;4.05;;;2.00;;
19587;SDS011;9940;47.252;8.696;2023-02-21T03:32:36;4.10;;;2.10;;
19587;SDS011;9940;47.252;8.696;2023-02-21T03:35:03;3.35;;;2.35;;
19587;SDS011;9940;47.252;8.696;2023-02-21T03:37:34;4.57;;;2.38;;
19587;SDS011;9940;47.252;8.696;2023-02-21T03:40:03;7.05;;;2.60;;
19587;SDS011;9940;47.252;8.696;2023-02-21T03:42:30;5.60;;;2.22;;
19587;SDS011;9940;47.252;8.696;2023-02-21T03:44:56;4.20;;;2.47;;
19587;SDS011;9940;47.252;8.696;2023-02-21T03:47:24;7.15;;;2.45;;
19587;SDS011;9940;47.252;8.696;2023-02-21T03:49:55;5.50;;;2.30;;
19587;SDS011;9940;47.252;8.696;2023-02-21T03:52:21;4.63;;;2.40;;
19587;SDS011;9940;47.252;8.696;2023-02-21T03:54:50;5.32;;;2.20;;
19587;SDS011;9940;47.252;8.696;2023-02-21T03:57:16;7.53;;;2.28;;
19587;SDS011;9940;47.252;8.696;2023-02-21T03:59:44;4.15;;;1.92;;
19587;SDS011;9940;47.252;8.696;2023-02-21T04:02:13;2.65;;;1.98;;
19587;SDS011;9940;47.252;8.696;2023-02-21T04:04:39;3.72;;;1.80;;
19587;SDS011;9940;47.252;8.696;2023-02-21T04:07:05;5.13;;;2.15;;
19587;SDS011;9940;47.252;8.696;2023-02-21T04:09:31;5.93;;;2.35;;
19587;SDS011;9940;47.252;8.696;2023-02-21T04:11:59;3.13;;;2.20;;
19587;SDS011;9940;47.252;8.696;2023-02-21T04:14:26;6.22;;;2.20;;
19587;SDS011;9940;47.252;8.696;2023-02-21T04:17:10;3.35;;;2.17;;
19587;SDS011;9940;47.252;8.696;2023-02-21T04:19:36;4.38;;;2.40;;
19587;SDS011;9940;47.252;8.696;2023-02-21T04:22:02;4.00;;;2.33;;
19587;SDS011;9940;47.252;8.696;2023-02-21T04:24:28;3.17;;;2.17;;
19587;SDS011;9940;47.252;8.696;2023-02-21T04:26:54;3.05;;;2.08;;
19587;SDS011;9940;47.252;8.696;2023-02-21T04:29:25;5.72;;;2.38;;
19587;SDS011;9940;47.252;8.696;2023-02-21T04:31:51;5.43;;;2.08;;
19587;SDS011;9940;47.252;8.696;2023-02-21T04:34:17;5.70;;;2.13;;
19587;SDS011;9940;47.252;8.696;2023-02-21T04:36:43;4.22;;;2.03;;
19587;SDS011;9940;47.252;8.696;2023-02-21T04:39:09;4.15;;;2.20;;
19587;SDS011;9940;47.252;8.696;2023-02-21T04:41:35;9.45;;;2.30;;
19587;SDS011;9940;47.252;8.696;2023-02-21T04:44:04;6.80;;;2.28;;
19587;SDS011;9940;47.252;8.696;2023-02-21T04:46:33;6.25;;;2.30;;
19587;SDS011;9940;47.252;8.696;2023-02-21T04:49:01;6.35;;;2.47;;
19587;SDS011;9940;47.252;8.696;2023-02-21T04:51:27;5.00;;;2.20;;
19587;SDS011;9940;47.252;8.696;2023-02-21T04:53:56;9.80;;;2.60;;
19587;SDS011;9940;47.252;8.696;2023-02-21T04:56:23;5.65;;;2.28;;
19587;SDS011;9940;47.252;8.696;2023-02-21T04:58:51;5.32;;;2.30;;
19587;SDS011;9940;47.252;8.696;2023-02-21T05:01:17;5.10;;;2.67;;
19587;SDS011;9940;47.252;8.696;2023-02-21T05:03:44;5.45;;;2.28;;
19587;SDS011;9940;47.252;8.696;2023-02-21T05:06:16;13.40;;;7.43;;
19587;SDS011;9940;47.252;8.696;2023-02-21T05:08:43;10.05;;;5.80;;
19587;SDS011;9940;47.252;8.696;2023-02-21T05:11:11;4.35;;;2.85;;
19587;SDS011;9940;47.252;8.696;2023-02-21T05:13:37;4.05;;;2.45;;
19587;SDS011;9940;47.252;8.696;2023-02-21T05:16:03;4.28;;;2.20;;
19587;SDS011;9940;47.252;8.696;2023-02-21T05:18:29;3.63;;;2.17;;
19587;SDS011;9940;47.252;8.696;2023-02-21T05:20:58;3.40;;;2.05;;
19587;SDS011;9940;47.252;8.696;2023-02-21T05:23:24;3.17;;;1.90;;
19587;SDS011;9940;47.252;8.696;2023-02-21T05:26:10;5.55;;;2.10;;
19587;SDS011;9940;47.252;8.696;2023-02-21T05:28:39;4.55;;;2.00;;
19587;SDS011;9940;47.252;8.696;2023-02-21T05:31:07;3.78;;;2.10;;
19587;SDS011;9940;47.252;8.696;2023-02-21T05:33:36;4.32;;;2.45;;
19587;SDS011;9940;47.252;8.696;2023-02-21T05:36:04;6.07;;;2.00;;
19587;SDS011;9940;47.252;8.696;2023-02-21T05:38:30;4.05;;;2.13;;
19587;SDS011;9940;47.252;8.696;2023-02-21T05:40:59;3.08;;;1.80;;
19587;SDS011;9940;47.252;8.696;2023-02-21T05:43:25;3.95;;;1.80;;
19587;SDS011;9940;47.252;8.696;2023-02-21T05:45:57;3.35;;;1.80;;
19587;SDS011;9940;47.252;8.696;2023-02-21T05:48:26;2.00;;;1.63;;
19587;SDS011;9940;47.252;8.696;2023-02-21T05:50:54;2.85;;;1.80;;
19587;SDS011;9940;47.252;8.696;2023-02-21T05:53:20;4.22;;;2.15;;
19587;SDS011;9940;47.252;8.696;2023-02-21T05:55:46;4.25;;;1.90;;
19587;SDS011;9940;47.252;8.696;2023-02-21T05:58:12;3.92;;;2.00;;
19587;SDS011;9940;47.252;8.696;2023-02-21T06:00:38;5.05;;;1.88;;
19587;SDS011;9940;47.252;8.696;2023-02-21T06:03:04;4.78;;;2.20;;
19587;SDS011;9940;47.252;8.696;2023-02-21T06:05:30;6.32;;;3.13;;
19587;SDS011;9940;47.252;8.696;2023-02-21T06:07:57;6.70;;;2.30;;
19587;SDS011;9940;47.252;8.696;2023-02-21T06:10:23;4.93;;;1.92;;
19587;SDS011;9940;47.252;8.696;2023-02-21T06:12:50;4.47;;;2.03;;
19587;SDS011;9940;47.252;8.696;2023-02-21T06:15:18;4.60;;;1.98;;
19587;SDS011;9940;47.252;8.696;2023-02-21T06:17:47;7.43;;;2.20;;
19587;SDS011;9940;47.252;8.696;2023-02-21T06:20:13;3.60;;;1.80;;
19587;SDS011;9940;47.252;8.696;2023-02-21T06:22:43;5.13;;;2.20;;
19587;SDS011;9940;47.252;8.696;2023-02-21T06:25:09;2.80;;;1.90;;
19587;SDS011;9940;47.252;8.696;2023-02-21T06:27:35;3.60;;;2.05;;
19587;SDS011;9940;47.252;8.696;2023-02-21T06:30:02;7.00;;;2.50;;
19587;SDS011;9940;47.252;8.696;2023-02-21T06:32:28;4.80;;;2.22;;
19587;SDS011;9940;47.252;8.696;2023-02-21T06:34:54;6.97;;;2.50;;
19587;SDS011;9940;47.252;8.696;2023-02-21T06:37:20;8.52;;;2.70;;
19587;SDS011;9940;47.252;8.696;2023-02-21T06:39:46;5.82;;;2.30;;
19587;SDS011;9940;47.252;8.696;2023-02-21T06:42:13;5.72;;;2.22;;
19587;SDS011;9940;47.252;8.696;2023-02-21T06:44:41;5.88;;;2.70;;
19587;SDS011;9940;47.252;8.696;2023-02-21T06:47:08;4.57;;;2.15;;
19587;SDS011;9940;47.252;8.696;2023-02-21T06:49:39;4.85;;;2.30;;
19587;SDS011;9940;47.252;8.696;2023-02-21T06:52:05;3.17;;;2.10;;
19587;SDS011;9940;47.252;8.696;2023-02-21T06:54:31;4.93;;;2.05;;
19587;SDS011;9940;47.252;8.696;2023-02-21T06:56:57;6.25;;;2.42;;
19587;SDS011;9940;47.252;8.696;2023-02-21T06:59:27;4.25;;;2.40;;
19587;SDS011;9940;47.252;8.696;2023-02-21T07:01:54;5.65;;;2.45;;
19587;SDS011;9940;47.252;8.696;2023-02-21T07:04:22;9.88;;;3.30;;
19587;SDS011;9940;47.252;8.696;2023-02-21T07:06:51;6.55;;;2.60;;
19587;SDS011;9940;47.252;8.696;2023-02-21T07:09:20;5.38;;;2.50;;
19587;SDS011;9940;47.252;8.696;2023-02-21T07:11:46;7.38;;;2.90;;
19587;SDS011;9940;47.252;8.696;2023-02-21T07:14:12;8.38;;;2.85;;
19587;SDS011;9940;47.252;8.696;2023-02-21T07:16:38;19.13;;;3.60;;
19587;SDS011;9940;47.252;8.696;2023-02-21T07:19:04;7.53;;;2.80;;
19587;SDS011;9940;47.252;8.696;2023-02-21T07:21:35;11.48;;;2.90;;
19587;SDS011;9940;47.252;8.696;2023-02-21T07:24:01;6.28;;;2.92;;
19587;SDS011;9940;47.252;8.696;2023-02-21T07:26:27;7.25;;;3.45;;
19587;SDS011;9940;47.252;8.696;2023-02-21T07:28:53;5.05;;;2.90;;
19587;SDS011;9940;47.252;8.696;2023-02-21T07:31:22;5.93;;;2.80;;
19587;SDS011;9940;47.252;8.696;2023-02-21T07:33:51;8.40;;;3.40;;
19587;SDS011;9940;47.252;8.696;2023-02-21T07:36:17;6.53;;;3.10;;
19587;SDS011;9940;47.252;8.696;2023-02-21T07:38:45;8.95;;;3.75;;
19587;SDS011;9940;47.252;8.696;2023-02-21T07:41:14;7.32;;;3.53;;
19587;SDS011;9940;47.252;8.696;2023-02-21T07:43:40;7.57;;;3.35;;
19587;SDS011;9940;47.252;8.696;2023-02-21T07:46:12;6.85;;;3.15;;
19587;SDS011;9940;47.252;8.696;2023-02-21T07:48:38;9.85;;;3.30;;
19587;SDS011;9940;47.252;8.696;2023-02-21T07:51:08;9.52;;;3.65;;
19587;SDS011;9940;47.252;8.696;2023-02-21T07:53:34;8.82;;;3.67;;
19587;SDS011;9940;47.252;8.696;2023-02-21T07:56:01;8.68;;;4.20;;
19587;SDS011;9940;47.252;8.696;2023-02-21T07:58:27;13.10;;;4.18;;
19587;SDS011;9940;47.252;8.696;2023-02-21T08:00:53;9.07;;;4.57;;
19587;SDS011;9940;47.252;8.696;2023-02-21T08:03:20;8.88;;;4.45;;
19587;SDS011;9940;47.252;8.696;2023-02-21T08:05:47;11.73;;;4.68;;
19587;SDS011;9940;47.252;8.696;2023-02-21T08:08:14;8.60;;;4.35;;
19587;SDS011;9940;47.252;8.696;2023-02-21T08:10:43;7.72;;;4.03;;
19587;SDS011;9940;47.252;8.696;2023-02-21T08:13:09;10.05;;;4.28;;
19587;SDS011;9940;47.252;8.696;2023-02-21T08:15:35;8.48;;;4.20;;
19587;SDS011;9940;47.252;8.696;2023-02-21T08:18:01;8.98;;;4.43;;
19587;SDS011;9940;47.252;8.696;2023-02-21T08:20:30;6.10;;;3.40;;
19587;SDS011;9940;47.252;8.696;2023-02-21T08:22:56;5.30;;;3.80;;
19587;SDS011;9940;47.252;8.696;2023-02-21T08:25:25;6.22;;;3.58;;
19587;SDS011;9940;47.252;8.696;2023-02-21T08:27:53;7.07;;;3.83;;
19587;SDS011;9940;47.252;8.696;2023-02-21T08:30:19;8.15;;;4.13;;
19587;SDS011;9940;47.252;8.696;2023-02-21T08:32:45;7.88;;;3.97;;
19587;SDS011;9940;47.252;8.696;2023-02-21T08:35:16;6.25;;;3.40;;
19587;SDS011;9940;47.252;8.696;2023-02-21T08:37:43;6.70;;;3.97;;
19587;SDS011;9940;47.252;8.696;2023-02-21T08:40:12;7.90;;;3.97;;
19587;SDS011;9940;47.252;8.696;2023-02-21T08:42:39;7.45;;;3.70;;
19587;SDS011;9940;47.252;8.696;2023-02-21T08:45:06;8.48;;;4.38;;
19587;SDS011;9940;47.252;8.696;2023-02-21T08:47:34;8.02;;;4.32;;
19587;SDS011;9940;47.252;8.696;2023-02-21T08:50:01;11.40;;;4.57;;
19587;SDS011;9940;47.252;8.696;2023-02-21T08:52:27;8.20;;;4.28;;
19587;SDS011;9940;47.252;8.696;2023-02-21T08:54:53;7.00;;;4.47;;
19587;SDS011;9940;47.252;8.696;2023-02-21T08:57:19;6.78;;;3.80;;
19587;SDS011;9940;47.252;8.696;2023-02-21T08:59:45;6.20;;;3.63;;
19587;SDS011;9940;47.252;8.696;2023-02-21T09:02:15;8.55;;;4.32;;
19587;SDS011;9940;47.252;8.696;2023-02-21T09:04:41;7.10;;;4.43;;
19587;SDS011;9940;47.252;8.696;2023-02-21T09:07:13;7.43;;;4.20;;
19587;SDS011;9940;47.252;8.696;2023-02-21T09:09:40;9.90;;;4.63;;
19587;SDS011;9940;47.252;8.696;2023-02-21T09:12:06;7.00;;;3.92;;
19587;SDS011;9940;47.252;8.696;2023-02-21T09:14:36;8.25;;;4.30;;
19587;SDS011;9940;47.252;8.696;2023-02-21T09:17:03;7.50;;;3.95;;
19587;SDS011;9940;47.252;8.696;2023-02-21T09:19:29;8.13;;;4.13;;
19587;SDS011;9940;47.252;8.696;2023-02-21T09:21:55;8.50;;;4.60;;
19587;SDS011;9940;47.252;8.696;2023-02-21T09:24:22;5.93;;;3.90;;
19587;SDS011;9940;47.252;8.696;2023-02-21T09:26:55;7.90;;;4.57;;
19587;SDS011;9940;47.252;8.696;2023-02-21T09:29:27;10.88;;;4.43;;
19587;SDS011;9940;47.252;8.696;2023-02-21T09:31:55;9.02;;;5.40;;
19587;SDS011;9940;47.252;8.696;2023-02-21T09:34:21;11.48;;;5.22;;
19587;SDS011;9940;47.252;8.696;2023-02-21T09:36:48;8.43;;;4.78;;
19587;SDS011;9940;47.252;8.696;2023-02-21T09:39:19;8.13;;;4.60;;
19587;SDS011;9940;47.252;8.696;2023-02-21T09:41:45;12.65;;;5.40;;
19587;SDS011;9940;47.252;8.696;2023-02-21T09:44:16;11.73;;;5.38;;
19587;SDS011;9940;47.252;8.696;2023-02-21T09:46:43;10.18;;;5.00;;
19587;SDS011;9940;47.252;8.696;2023-02-21T09:49:15;6.85;;;5.10;;
19587;SDS011;9940;47.252;8.696;2023-02-21T09:51:47;7.53;;;4.95;;
19587;SDS011;9940;47.252;8.696;2023-02-21T09:54:17;10.18;;;4.75;;
19587;SDS011;9940;47.252;8.696;2023-02-21T09:56:46;9.13;;;4.82;;
19587;SDS011;9940;47.252;8.696;2023-02-21T09:59:12;8.07;;;5.00;;
19587;SDS011;9940;47.252;8.696;2023-02-21T10:01:45;7.32;;;4.50;;
19587;SDS011;9940;47.252;8.696;2023-02-21T10:07:20;9.43;;;4.60;;
19587;SDS011;9940;47.252;8.696;2023-02-21T10:09:45;15.38;;;4.97;;
19587;SDS011;9940;47.252;8.696;2023-02-21T10:12:27;7.18;;;3.92;;
19587;SDS011;9940;47.252;8.696;2023-02-21T10:19:59;6.32;;;4.03;;
19587;SDS011;9940;47.252;8.696;2023-02-21T10:22:32;9.40;;;3.97;;
19587;SDS011;9940;47.252;8.696;2023-02-21T10:25:05;6.45;;;4.05;;
19587;SDS011;9940;47.252;8.696;2023-02-21T10:27:35;6.70;;;4.15;;
19587;SDS011;9940;47.252;8.696;2023-02-21T10:30:05;10.55;;;4.38;;
19587;SDS011;9940;47.252;8.696;2023-02-21T10:32:34;6.97;;;4.35;;
19587;SDS011;9940;47.252;8.696;2023-02-21T10:35:01;7.13;;;4.28;;
19587;SDS011;9940;47.252;8.696;2023-02-21T10:40:22;6.05;;;4.72;;
19587;SDS011;9940;47.252;8.696;2023-02-21T10:42:55;6.33;;;4.73;;
19587;SDS011;9940;47.252;8.696;2023-02-21T10:47:52;5.90;;;4.68;;
19587;SDS011;9940;47.252;8.696;2023-02-21T10:53:22;8.05;;;7.30;;
19587;SDS011;9940;47.252;8.696;2023-02-21T11:01:14;11.55;;;10.85;;
19587;SDS011;9940;47.252;8.696;2023-02-21T11:03:50;16.40;;;15.55;;
19587;SDS011;9940;47.252;8.696;2023-02-21T11:06:23;15.45;;;14.45;;
19587;SDS011;9940;47.252;8.696;2023-02-21T11:08:57;27.17;;;25.83;;
19587;SDS011;9940;47.252;8.696;2023-02-21T11:11:42;23.92;;;22.73;;
19587;SDS011;9940;47.252;8.696;2023-02-21T11:16:35;39.45;;;37.17;;
19587;SDS011;9940;47.252;8.696;2023-02-21T11:19:05;46.22;;;44.00;;
19587;SDS011;9940;47.252;8.696;2023-02-21T11:21:32;52.50;;;49.72;;
19587;SDS011;9940;47.252;8.696;2023-02-21T11:23:59;65.38;;;62.22;;
19587;SDS011;9940;47.252;8.696;2023-02-21T11:26:35;63.40;;;60.33;;
19587;SDS011;9940;47.252;8.696;2023-02-21T11:29:08;76.68;;;73.05;;
19587;SDS011;9940;47.252;8.696;2023-02-21T11:31:35;59.63;;;56.72;;
19587;SDS011;9940;47.252;8.696;2023-02-21T11:34:02;98.85;;;94.43;;
19587;SDS011;9940;47.252;8.696;2023-02-21T11:36:32;115.78;;;110.75;;
19587;SDS011;9940;47.252;8.696;2023-02-21T11:39:14;128.05;;;122.45;;
19587;SDS011;9940;47.252;8.696;2023-02-21T11:41:50;158.93;;;152.27;;
19587;SDS011;9940;47.252;8.696;2023-02-21T11:44:50;124.78;;;119.38;;
19587;SDS011;9940;47.252;8.696;2023-02-21T11:47:18;168.90;;;161.80;;
19587;SDS011;9940;47.252;8.696;2023-02-21T11:52:28;150.02;;;143.52;;
19587;SDS011;9940;47.252;8.696;2023-02-21T11:54:57;170.82;;;163.88;;
19587;SDS011;9940;47.252;8.696;2023-02-21T12:02:58;216.00;;;207.70;;
19587;SDS011;9940;47.252;8.696;2023-02-21T12:05:40;254.60;;;245.25;;
19587;SDS011;9940;47.252;8.696;2023-02-21T12:13:22;188.15;;;180.65;;
19587;SDS011;9940;47.252;8.696;2023-02-21T12:24:14;290.95;;;280.45;;
19587;SDS011;9940;47.252;8.696;2023-02-21T12:48:04;95.80;;;91.55;;
19587;SDS011;9940;47.252;8.696;2023-02-21T12:50:35;70.32;;;67.03;;
19587;SDS011;9940;47.252;8.696;2023-02-21T12:55:36;57.70;;;54.80;;
19587;SDS011;9940;47.252;8.696;2023-02-21T13:08:16;26.13;;;24.63;;
19587;SDS011;9940;47.252;8.696;2023-02-21T13:13:33;22.83;;;21.52;;
19587;SDS011;9940;47.252;8.696;2023-02-21T13:16:03;17.48;;;16.48;;
19587;SDS011;9940;47.252;8.696;2023-02-21T13:18:35;22.85;;;21.27;;
19587;SDS011;9940;47.252;8.696;2023-02-21T13:21:13;24.65;;;23.25;;
19587;SDS011;9940;47.252;8.696;2023-02-21T13:23:42;20.55;;;19.25;;
19587;SDS011;9940;47.252;8.696;2023-02-21T13:28:55;21.63;;;20.35;;
19587;SDS011;9940;47.252;8.696;2023-02-21T13:31:26;23.70;;;22.30;;
19587;SDS011;9940;47.252;8.696;2023-02-21T13:33:58;31.20;;;29.45;;
19587;SDS011;9940;47.252;8.696;2023-02-21T13:39:09;15.48;;;14.48;;
19587;SDS011;9940;47.252;8.696;2023-02-21T13:44:10;20.88;;;19.67;;
19587;SDS011;9940;47.252;8.696;2023-02-21T13:51:48;13.52;;;12.63;;
19587;SDS011;9940;47.252;8.696;2023-02-21T13:54:21;17.85;;;16.75;;
19587;SDS011;9940;47.252;8.696;2023-02-21T13:56:48;14.40;;;13.25;;
19587;SDS011;9940;47.252;8.696;2023-02-21T14:01:50;9.23;;;8.48;;
19587;SDS011;9940;47.252;8.696;2023-02-21T14:07:03;11.88;;;10.88;;
19587;SDS011;9940;47.252;8.696;2023-02-21T14:09:33;11.88;;;10.77;;
19587;SDS011;9940;47.252;8.696;2023-02-21T14:12:00;7.78;;;7.07;;
19587;SDS011;9940;47.252;8.696;2023-02-21T14:14:31;7.40;;;6.68;;
19587;SDS011;9940;47.252;8.696;2023-02-21T14:17:10;7.88;;;7.10;;
19587;SDS011;9940;47.252;8.696;2023-02-21T14:22:33;7.57;;;6.97;;
19587;SDS011;9940;47.252;8.696;2023-02-21T14:25:06;6.40;;;5.72;;
19587;SDS011;9940;47.252;8.696;2023-02-21T14:27:48;6.80;;;6.03;;
19587;SDS011;9940;47.252;8.696;2023-02-21T14:30:23;6.85;;;6.00;;
19587;SDS011;9940;47.252;8.696;2023-02-21T14:33:20;7.55;;;5.65;;
19587;SDS011;9940;47.252;8.696;2023-02-21T14:35:54;9.38;;;6.97;;
19587;SDS011;9940;47.252;8.696;2023-02-21T14:38:31;7.32;;;4.85;;
19587;SDS011;9940;47.252;8.696;2023-02-21T14:43:41;7.07;;;4.43;;
19587;SDS011;9940;47.252;8.696;2023-02-21T14:57:29;9.10;;;4.60;;
19587;SDS011;9940;47.252;8.696;2023-02-21T15:00:28;6.85;;;5.18;;
19587;SDS011;9940;47.252;8.696;2023-02-21T15:03:30;9.93;;;5.38;;
19587;SDS011;9940;47.252;8.696;2023-02-21T15:06:26;9.25;;;5.18;;
19587;SDS011;9940;47.252;8.696;2023-02-21T15:08:53;9.13;;;6.00;;
19587;SDS011;9940;47.252;8.696;2023-02-21T15:17:09;6.97;;;5.80;;
19587;SDS011;9940;47.252;8.696;2023-02-21T15:19:37;6.70;;;4.93;;
19587;SDS011;9940;47.252;8.696;2023-02-21T15:22:14;9.20;;;5.30;;
19587;SDS011;9940;47.252;8.696;2023-02-21T15:27:34;5.72;;;3.95;;
19587;SDS011;9940;47.252;8.696;2023-02-21T15:30:06;9.20;;;5.40;;
19587;SDS011;9940;47.252;8.696;2023-02-21T15:32:37;6.10;;;4.72;;
19587;SDS011;9940;47.252;8.696;2023-02-21T15:35:06;10.40;;;5.10;;
19587;SDS011;9940;47.252;8.696;2023-02-21T15:37:39;7.75;;;4.63;;
19587;SDS011;9940;47.252;8.696;2023-02-21T15:40:15;8.13;;;4.78;;
19587;SDS011;9940;47.252;8.696;2023-02-21T15:42:44;6.47;;;4.03;;
19587;SDS011;9940;47.252;8.696;2023-02-21T15:45:15;8.65;;;5.40;;
19587;SDS011;9940;47.252;8.696;2023-02-21T15:47:45;6.97;;;5.57;;
19587;SDS011;9940;47.252;8.696;2023-02-21T15:55:42;10.05;;;4.80;;
19587;SDS011;9940;47.252;8.696;2023-02-21T16:00:48;8.15;;;5.82;;
19587;SDS011;9940;47.252;8.696;2023-02-21T16:06:16;27.23;;;18.13;;
19587;SDS011;9940;47.252;8.696;2023-02-21T16:11:25;11.27;;;7.70;;
19587;SDS011;9940;47.252;8.696;2023-02-21T16:13:54;9.43;;;6.43;;
19587;SDS011;9940;47.252;8.696;2023-02-21T16:16:20;13.02;;;8.02;;
19587;SDS011;9940;47.252;8.696;2023-02-21T16:18:52;11.73;;;8.05;;
19587;SDS011;9940;47.252;8.696;2023-02-21T16:21:22;11.07;;;6.22;;
19587;SDS011;9940;47.252;8.696;2023-02-21T16:23:49;7.53;;;4.95;;
19587;SDS011;9940;47.252;8.696;2023-02-21T16:28:42;6.97;;;4.78;;
19587;SDS011;9940;47.252;8.696;2023-02-21T16:31:14;8.05;;;5.20;;
19587;SDS011;9940;47.252;8.696;2023-02-21T16:33:41;12.38;;;7.78;;
19587;SDS011;9940;47.252;8.696;2023-02-21T16:36:08;12.15;;;7.88;;
19587;SDS011;9940;47.252;8.696;2023-02-21T16:38:42;14.75;;;8.35;;
19587;SDS011;9940;47.252;8.696;2023-02-21T16:41:13;15.60;;;7.85;;
19587;SDS011;9940;47.252;8.696;2023-02-21T16:43:40;14.30;;;7.85;;
19587;SDS011;9940;47.252;8.696;2023-02-21T16:46:05;12.30;;;7.28;;
19587;SDS011;9940;47.252;8.696;2023-02-21T16:48:31;17.95;;;9.95;;
19587;SDS011;9940;47.252;8.696;2023-02-21T16:51:02;23.63;;;12.88;;
19587;SDS011;9940;47.252;8.696;2023-02-21T16:53:29;21.80;;;11.00;;
19587;SDS011;9940;47.252;8.696;2023-02-21T16:55:58;15.75;;;9.13;;
19587;SDS011;9940;47.252;8.696;2023-02-21T17:00:56;19.02;;;11.45;;
19587;SDS011;9940;47.252;8.696;2023-02-21T17:03:23;49.45;;;19.35;;
19587;SDS011;9940;47.252;8.696;2023-02-21T17:05:49;53.35;;;20.77;;
19587;SDS011;9940;47.252;8.696;2023-02-21T17:08:16;18.50;;;9.40;;
19587;SDS011;9940;47.252;8.696;2023-02-21T17:10:44;13.48;;;6.85;;
19587;SDS011;9940;47.252;8.696;2023-02-21T17:13:11;18.33;;;7.53;;
19587;SDS011;9940;47.252;8.696;2023-02-21T17:15:37;17.90;;;6.78;;
19587;SDS011;9940;47.252;8.696;2023-02-21T17:18:03;14.40;;;6.30;;
19587;SDS011;9940;47.252;8.696;2023-02-21T17:20:29;12.65;;;6.00;;
19587;SDS011;9940;47.252;8.696;2023-02-21T17:22:58;9.10;;;5.65;;
19587;SDS011;9940;47.252;8.696;2023-02-21T17:25:25;8.60;;;5.68;;
19587;SDS011;9940;47.252;8.696;2023-02-21T17:27:54;10.60;;;5.75;;
19587;SDS011;9940;47.252;8.696;2023-02-21T17:30:21;8.73;;;5.13;;
19587;SDS011;9940;47.252;8.696;2023-02-21T17:32:48;12.93;;;6.28;;
19587;SDS011;9940;47.252;8.696;2023-02-21T17:35:15;16.38;;;8.50;;
19587;SDS011;9940;47.252;8.696;2023-02-21T17:37:43;13.15;;;7.75;;
19587;SDS011;9940;47.252;8.696;2023-02-21T17:40:11;11.15;;;6.85;;
19587;SDS011;9940;47.252;8.696;2023-02-21T17:42:38;9.23;;;5.45;;
19587;SDS011;9940;47.252;8.696;2023-02-21T17:45:04;8.15;;;5.00;;
19587;SDS011;9940;47.252;8.696;2023-02-21T17:47:30;23.35;;;13.05;;
19587;SDS011;9940;47.252;8.696;2023-02-21T17:49:59;24.75;;;11.40;;
19587;SDS011;9940;47.252;8.696;2023-02-21T17:52:27;12.68;;;7.07;;
19587;SDS011;9940;47.252;8.696;2023-02-21T17:54:54;12.38;;;6.68;;
19587;SDS011;9940;47.252;8.696;2023-02-21T17:57:20;11.65;;;7.00;;
19587;SDS011;9940;47.252;8.696;2023-02-21T17:59:46;25.13;;;11.40;;
19587;SDS011;9940;47.252;8.696;2023-02-21T18:02:13;21.98;;;11.05;;
19587;SDS011;9940;47.252;8.696;2023-02-21T18:04:44;14.65;;;7.93;;
19587;SDS011;9940;47.252;8.696;2023-02-21T18:07:12;13.10;;;6.85;;
19587;SDS011;9940;47.252;8.696;2023-02-21T18:09:44;12.00;;;6.15;;
19587;SDS011;9940;47.252;8.696;2023-02-21T18:12:10;14.32;;;6.90;;
19587;SDS011;9940;47.252;8.696;2023-02-21T18:14:36;14.00;;;6.82;;
19587;SDS011;9940;47.252;8.696;2023-02-21T18:17:04;13.57;;;7.07;;
19587;SDS011;9940;47.252;8.696;2023-02-21T18:19:30;15.70;;;7.90;;
19587;SDS011;9940;47.252;8.696;2023-02-21T18:21:59;13.02;;;6.75;;